FFT2497 KATL-KIND
Flight info
| Callsign | FFT2497 |
|---|---|
| Flight time | 1h 7m |
| Altitude | 36000 |
| Route | VARNM2 RESPE IIU HAGAL GIIBS4 |
| Aircraft | A20N/M-SDE2E3FGHIRWXY/LB1 |
Departure
| Time | 2026-05-06 03:11 |
|---|---|
| Airport | Hartsfield Jackson Atlanta International Airport (KATL) |
Arrival
| Time | 2026-05-06 04:19 |
|---|---|
| Airport | Indianapolis International Airport (KIND) |
| Time | Latitude | Longitude | Altitude | Speed | Heading |
|---|---|---|---|---|---|
| 2026-05-06 02:52 | 33.64402 | -84.42521 | 1006 ft | 0 kts | 271° |
| 2026-05-06 02:57 | 33.64402 | -84.42507 | 1006 ft | 3 kts | 272° |
| 2026-05-06 02:57 | 33.64400 | -84.42469 | 1006 ft | 5 kts | 275° |
| 2026-05-06 02:57 | 33.64396 | -84.42426 | 1006 ft | 5 kts | 277° |
| 2026-05-06 02:57 | 33.64392 | -84.42393 | 1006 ft | 0 kts | 279° |
| 2026-05-06 02:58 | 33.64393 | -84.42399 | 1006 ft | 2 kts | 279° |
| 2026-05-06 02:58 | 33.64394 | -84.42405 | 1006 ft | 0 kts | 279° |
| 2026-05-06 02:59 | 33.64394 | -84.42406 | 1006 ft | 0 kts | 279° |
| 2026-05-06 03:03 | 33.64394 | -84.42407 | 1006 ft | 0 kts | 279° |
| 2026-05-06 03:06 | 33.64395 | -84.42412 | 1006 ft | 1 kts | 279° |
| 2026-05-06 03:07 | 33.64391 | -84.42418 | 1006 ft | 0 kts | 231° |
| 2026-05-06 03:07 | 33.64388 | -84.42420 | 1006 ft | 2 kts | 216° |
| 2026-05-06 03:07 | 33.64318 | -84.42418 | 1006 ft | 10 kts | 166° |
| 2026-05-06 03:07 | 33.64265 | -84.42353 | 1006 ft | 11 kts | 94° |
| 2026-05-06 03:08 | 33.64263 | -84.42284 | 1006 ft | 14 kts | 90° |
| 2026-05-06 03:08 | 33.64281 | -84.42169 | 1006 ft | 15 kts | 44° |
| 2026-05-06 03:08 | 33.64398 | -84.42147 | 1006 ft | 20 kts | 359° |
| 2026-05-06 03:08 | 33.64518 | -84.42136 | 1006 ft | 15 kts | 26° |
| 2026-05-06 03:09 | 33.64542 | -84.42006 | 1006 ft | 19 kts | 89° |
| 2026-05-06 03:09 | 33.64542 | -84.41825 | 1006 ft | 24 kts | 90° |
| 2026-05-06 03:09 | 33.64542 | -84.41614 | 1007 ft | 27 kts | 91° |
| 2026-05-06 03:09 | 33.64542 | -84.41376 | 1007 ft | 30 kts | 91° |
| 2026-05-06 03:10 | 33.64543 | -84.41121 | 1006 ft | 31 kts | 89° |
| 2026-05-06 03:10 | 33.64546 | -84.40861 | 1006 ft | 27 kts | 80° |
| 2026-05-06 03:10 | 33.64569 | -84.40639 | 1005 ft | 24 kts | 89° |
| 2026-05-06 03:10 | 33.64652 | -84.40568 | 1004 ft | 8 kts | 351° |
| 2026-05-06 03:11 | 33.64680 | -84.40640 | 1003 ft | 13 kts | 270° |
| 2026-05-06 03:11 | 33.64680 | -84.41114 | 1006 ft | 113 kts | 270° |
| 2026-05-06 03:11 | 33.64688 | -84.42380 | 1408 ft | 170 kts | 269° |
| 2026-05-06 03:11 | 33.64742 | -84.43873 | 2336 ft | 183 kts | 268° |
| 2026-05-06 03:12 | 33.64865 | -84.45382 | 3358 ft | 185 kts | 271° |
| 2026-05-06 03:12 | 33.65134 | -84.46954 | 4001 ft | 205 kts | 280° |
| 2026-05-06 03:12 | 33.65685 | -84.48655 | 4531 ft | 230 kts | 288° |
| 2026-05-06 03:12 | 33.66372 | -84.50515 | 5390 ft | 254 kts | 289° |
| 2026-05-06 03:13 | 33.67111 | -84.52453 | 6782 ft | 256 kts | 289° |
| 2026-05-06 03:13 | 33.67862 | -84.54415 | 8185 ft | 260 kts | 290° |
| 2026-05-06 03:13 | 33.68778 | -84.56324 | 9490 ft | 271 kts | 306° |
| 2026-05-06 03:13 | 33.70272 | -84.57709 | 10748 ft | 283 kts | 330° |
| 2026-05-06 03:14 | 33.72220 | -84.58246 | 12024 ft | 295 kts | 353° |
| 2026-05-06 03:14 | 33.74294 | -84.58235 | 13308 ft | 299 kts | 355° |
| 2026-05-06 03:14 | 33.76391 | -84.58179 | 14511 ft | 302 kts | 355° |
| 2026-05-06 03:14 | 33.78511 | -84.58122 | 15621 ft | 306 kts | 354° |
| 2026-05-06 03:15 | 33.80627 | -84.58077 | 16706 ft | 309 kts | 353° |
| 2026-05-06 03:15 | 33.82809 | -84.58053 | 17629 ft | 320 kts | 352° |
| 2026-05-06 03:15 | 33.85131 | -84.58083 | 17969 ft | 347 kts | 352° |
| 2026-05-06 03:15 | 33.87647 | -84.58161 | 18324 ft | 369 kts | 352° |
| 2026-05-06 03:16 | 33.90232 | -84.58252 | 19123 ft | 374 kts | 352° |
| 2026-05-06 03:16 | 33.92845 | -84.58336 | 20009 ft | 377 kts | 352° |
| 2026-05-06 03:16 | 33.95461 | -84.58417 | 20835 ft | 383 kts | 352° |
| 2026-05-06 03:16 | 33.98139 | -84.58499 | 21656 ft | 387 kts | 352° |
| 2026-05-06 03:17 | 34.00860 | -84.58581 | 22471 ft | 392 kts | 352° |
| 2026-05-06 03:17 | 34.03615 | -84.58664 | 23274 ft | 397 kts | 352° |
| 2026-05-06 03:17 | 34.06392 | -84.58747 | 23991 ft | 402 kts | 351° |
| 2026-05-06 03:17 | 34.09194 | -84.58829 | 24750 ft | 403 kts | 351° |
| 2026-05-06 03:18 | 34.11978 | -84.58911 | 25464 ft | 406 kts | 351° |
| 2026-05-06 03:18 | 34.14811 | -84.58996 | 26157 ft | 409 kts | 351° |
| 2026-05-06 03:18 | 34.17677 | -84.59082 | 26852 ft | 411 kts | 350° |
| 2026-05-06 03:18 | 34.20549 | -84.59170 | 27530 ft | 413 kts | 350° |
| 2026-05-06 03:19 | 34.23401 | -84.59257 | 28188 ft | 416 kts | 350° |
| 2026-05-06 03:19 | 34.26327 | -84.59347 | 28813 ft | 418 kts | 349° |
| 2026-05-06 03:19 | 34.29205 | -84.59657 | 29427 ft | 414 kts | 343° |
| 2026-05-06 03:19 | 34.32029 | -84.60303 | 30019 ft | 413 kts | 340° |
| 2026-05-06 03:20 | 34.37675 | -84.61699 | 31091 ft | 418 kts | 340° |
| 2026-05-06 03:20 | 34.40538 | -84.62397 | 31651 ft | 417 kts | 340° |
| 2026-05-06 03:20 | 34.43379 | -84.63089 | 31935 ft | 417 kts | 340° |
| 2026-05-06 03:21 | 34.46229 | -84.63795 | 31979 ft | 429 kts | 340° |
| 2026-05-06 03:21 | 34.49179 | -84.64528 | 31985 ft | 435 kts | 340° |
| 2026-05-06 03:21 | 34.55121 | -84.65986 | 31980 ft | 435 kts | 340° |
| 2026-05-06 03:22 | 34.61070 | -84.67453 | 31981 ft | 436 kts | 339° |
| 2026-05-06 03:22 | 34.67031 | -84.68924 | 31975 ft | 437 kts | 340° |
| 2026-05-06 03:23 | 34.72968 | -84.70395 | 31979 ft | 437 kts | 339° |
| 2026-05-06 03:23 | 34.78946 | -84.71879 | 31982 ft | 437 kts | 339° |
| 2026-05-06 03:24 | 34.84868 | -84.73352 | 31972 ft | 437 kts | 339° |
| 2026-05-06 03:24 | 34.90842 | -84.74841 | 31974 ft | 438 kts | 340° |
| 2026-05-06 03:25 | 34.96831 | -84.76334 | 31960 ft | 438 kts | 339° |
| 2026-05-06 03:25 | 35.02781 | -84.77819 | 31952 ft | 437 kts | 339° |
| 2026-05-06 03:26 | 35.08740 | -84.79309 | 31936 ft | 438 kts | 339° |
| 2026-05-06 03:26 | 35.14723 | -84.80812 | 31954 ft | 440 kts | 340° |
| 2026-05-06 03:27 | 35.20697 | -84.82316 | 31961 ft | 440 kts | 340° |
| 2026-05-06 03:27 | 35.26717 | -84.83826 | 31961 ft | 440 kts | 340° |
| 2026-05-06 03:28 | 35.32699 | -84.85328 | 31956 ft | 440 kts | 340° |
| 2026-05-06 03:28 | 35.38722 | -84.86845 | 31946 ft | 440 kts | 340° |
| 2026-05-06 03:29 | 35.44719 | -84.88359 | 31934 ft | 442 kts | 340° |
| 2026-05-06 03:29 | 35.50773 | -84.89883 | 31928 ft | 442 kts | 340° |
| 2026-05-06 03:30 | 35.56781 | -84.91401 | 31918 ft | 442 kts | 340° |
| 2026-05-06 03:30 | 35.62787 | -84.92925 | 31908 ft | 443 kts | 339° |
| 2026-05-06 03:31 | 35.68842 | -84.94465 | 31913 ft | 445 kts | 340° |
| 2026-05-06 03:31 | 35.74931 | -84.96010 | 31904 ft | 446 kts | 339° |
| 2026-05-06 03:32 | 35.81026 | -84.97559 | 31901 ft | 446 kts | 340° |
| 2026-05-06 03:32 | 35.87072 | -84.99098 | 31954 ft | 445 kts | 340° |
| 2026-05-06 03:33 | 35.93158 | -85.00651 | 31961 ft | 445 kts | 340° |
| 2026-05-06 03:33 | 35.99200 | -85.02194 | 31962 ft | 445 kts | 340° |
| 2026-05-06 03:34 | 36.05243 | -85.03741 | 31956 ft | 445 kts | 340° |
| 2026-05-06 03:34 | 36.11337 | -85.05303 | 31942 ft | 447 kts | 340° |
| 2026-05-06 03:35 | 36.17452 | -85.06872 | 31926 ft | 451 kts | 339° |
| 2026-05-06 03:35 | 36.23556 | -85.08440 | 31908 ft | 450 kts | 339° |
| 2026-05-06 03:36 | 36.29708 | -85.10021 | 31887 ft | 450 kts | 339° |
| 2026-05-06 03:36 | 36.35808 | -85.11596 | 31883 ft | 450 kts | 339° |
| 2026-05-06 03:37 | 36.41946 | -85.13182 | 31885 ft | 453 kts | 339° |
| 2026-05-06 03:37 | 36.48133 | -85.14784 | 31870 ft | 452 kts | 339° |
| 2026-05-06 03:38 | 36.54264 | -85.16374 | 31871 ft | 452 kts | 339° |
| 2026-05-06 03:38 | 36.60449 | -85.17979 | 31868 ft | 452 kts | 339° |
| 2026-05-06 03:39 | 36.66582 | -85.19574 | 31888 ft | 453 kts | 339° |
| 2026-05-06 03:39 | 36.72770 | -85.21186 | 31876 ft | 453 kts | 339° |
| 2026-05-06 03:40 | 36.78931 | -85.22793 | 31876 ft | 453 kts | 339° |
| 2026-05-06 03:40 | 36.85077 | -85.24400 | 31879 ft | 453 kts | 339° |
| 2026-05-06 03:41 | 36.91274 | -85.26020 | 31886 ft | 454 kts | 338° |
| 2026-05-06 03:41 | 36.97417 | -85.27631 | 31859 ft | 454 kts | 338° |
| 2026-05-06 03:42 | 37.03611 | -85.29261 | 31860 ft | 454 kts | 338° |
| 2026-05-06 03:42 | 37.09793 | -85.30888 | 31859 ft | 453 kts | 338° |
| 2026-05-06 03:43 | 37.15951 | -85.32509 | 31856 ft | 452 kts | 338° |
| 2026-05-06 03:43 | 37.22079 | -85.34127 | 31851 ft | 452 kts | 338° |
| 2026-05-06 03:44 | 37.28247 | -85.35761 | 31851 ft | 452 kts | 338° |
| 2026-05-06 03:44 | 37.34424 | -85.37397 | 31842 ft | 452 kts | 338° |
| 2026-05-06 03:45 | 37.40551 | -85.39022 | 31857 ft | 451 kts | 338° |
| 2026-05-06 03:45 | 37.46711 | -85.40659 | 31841 ft | 451 kts | 338° |
| 2026-05-06 03:46 | 37.52836 | -85.42290 | 31836 ft | 452 kts | 338° |
| 2026-05-06 03:46 | 37.59029 | -85.43941 | 31823 ft | 454 kts | 338° |
| 2026-05-06 03:47 | 37.65184 | -85.45585 | 31820 ft | 454 kts | 338° |
| 2026-05-06 03:47 | 37.71398 | -85.47248 | 31814 ft | 454 kts | 338° |
| 2026-05-06 03:48 | 37.77564 | -85.48902 | 31813 ft | 455 kts | 338° |
| 2026-05-06 03:48 | 37.83764 | -85.50566 | 31813 ft | 455 kts | 338° |
| 2026-05-06 03:49 | 37.89961 | -85.52232 | 31816 ft | 454 kts | 338° |
| 2026-05-06 03:49 | 37.96123 | -85.53893 | 31814 ft | 455 kts | 337° |
| 2026-05-06 03:50 | 38.02330 | -85.55569 | 31817 ft | 455 kts | 337° |
| 2026-05-06 03:50 | 38.08531 | -85.57244 | 31819 ft | 455 kts | 337° |
| 2026-05-06 03:51 | 38.14842 | -85.58404 | 31810 ft | 464 kts | 343° |
| 2026-05-06 03:51 | 38.21267 | -85.59343 | 31816 ft | 464 kts | 342° |
| 2026-05-06 03:52 | 38.27654 | -85.60285 | 31817 ft | 463 kts | 342° |
| 2026-05-06 03:52 | 38.34073 | -85.61234 | 31802 ft | 464 kts | 342° |
| 2026-05-06 03:53 | 38.40457 | -85.62182 | 31805 ft | 463 kts | 342° |
| 2026-05-06 03:53 | 38.46868 | -85.63162 | 31811 ft | 464 kts | 342° |
| 2026-05-06 03:54 | 38.53291 | -85.64144 | 31814 ft | 463 kts | 342° |
| 2026-05-06 03:54 | 38.59702 | -85.65118 | 31828 ft | 464 kts | 342° |
| 2026-05-06 03:55 | 38.66083 | -85.66052 | 31823 ft | 465 kts | 342° |
| 2026-05-06 03:55 | 38.72391 | -85.66953 | 31846 ft | 438 kts | 342° |
| 2026-05-06 03:56 | 38.77432 | -85.67700 | 31848 ft | 441 kts | 342° |
| 2026-05-06 03:56 | 38.83510 | -85.68609 | 31850 ft | 440 kts | 342° |
| 2026-05-06 03:57 | 38.90612 | -85.69662 | 31846 ft | 440 kts | 342° |
| 2026-05-06 03:57 | 38.95696 | -85.70415 | 31848 ft | 440 kts | 342° |
| 2026-05-06 03:58 | 39.01803 | -85.71321 | 31854 ft | 440 kts | 342° |
| 2026-05-06 03:58 | 39.07820 | -85.72333 | 31857 ft | 436 kts | 340° |
| 2026-05-06 03:59 | 39.13809 | -85.73544 | 31857 ft | 429 kts | 335° |
| 2026-05-06 03:59 | 39.19338 | -85.75982 | 31847 ft | 411 kts | 324° |
| 2026-05-06 04:00 | 39.21946 | -85.77496 | 31399 ft | 410 kts | 324° |
| 2026-05-06 04:00 | 39.24539 | -85.78991 | 30357 ft | 416 kts | 325° |
| 2026-05-06 04:00 | 39.27204 | -85.80528 | 28945 ft | 420 kts | 325° |
| 2026-05-06 04:00 | 39.29888 | -85.82074 | 26964 ft | 425 kts | 326° |
| 2026-05-06 04:01 | 39.32535 | -85.83843 | 24647 ft | 430 kts | 321° |
| 2026-05-06 04:01 | 39.35026 | -85.85991 | 22223 ft | 440 kts | 316° |
| 2026-05-06 04:01 | 39.37395 | -85.88468 | 20358 ft | 436 kts | 314° |
| 2026-05-06 04:01 | 39.39747 | -85.90918 | 19267 ft | 430 kts | 314° |
| 2026-05-06 04:02 | 39.42033 | -85.93273 | 18893 ft | 408 kts | 314° |
| 2026-05-06 04:02 | 39.44204 | -85.95509 | 18391 ft | 393 kts | 315° |
| 2026-05-06 04:02 | 39.46558 | -85.97303 | 17802 ft | 395 kts | 330° |
| 2026-05-06 04:02 | 39.49221 | -85.98129 | 17492 ft | 393 kts | 348° |
| 2026-05-06 04:03 | 39.51973 | -85.97880 | 17274 ft | 406 kts | 7° |
| 2026-05-06 04:03 | 39.54623 | -85.96590 | 17028 ft | 418 kts | 22° |
| 2026-05-06 04:03 | 39.57258 | -85.95173 | 16501 ft | 399 kts | 7° |
| 2026-05-06 04:03 | 39.59910 | -85.94750 | 15990 ft | 371 kts | 352° |
| 2026-05-06 04:04 | 39.62434 | -85.95197 | 14742 ft | 361 kts | 336° |
| 2026-05-06 04:04 | 39.64702 | -85.96475 | 13054 ft | 359 kts | 322° |
| 2026-05-06 04:04 | 39.66671 | -85.98510 | 10861 ft | 365 kts | 307° |
| 2026-05-06 04:04 | 39.68148 | -86.01186 | 9083 ft | 362 kts | 293° |
| 2026-05-06 04:05 | 39.69019 | -86.04155 | 8172 ft | 338 kts | 280° |
| 2026-05-06 04:05 | 39.69328 | -86.06992 | 7839 ft | 305 kts | 269° |
| 2026-05-06 04:05 | 39.69198 | -86.09609 | 7589 ft | 277 kts | 258° |
| 2026-05-06 04:05 | 39.68742 | -86.11934 | 7221 ft | 258 kts | 252° |
| 2026-05-06 04:06 | 39.68225 | -86.14190 | 6492 ft | 258 kts | 252° |
| 2026-05-06 04:06 | 39.67736 | -86.16333 | 6266 ft | 241 kts | 252° |
| 2026-05-06 04:06 | 39.67277 | -86.18340 | 6090 ft | 222 kts | 253° |
| 2026-05-06 04:06 | 39.66716 | -86.20132 | 6017 ft | 218 kts | 239° |
| 2026-05-06 04:07 | 39.65762 | -86.21666 | 6009 ft | 218 kts | 225° |
| 2026-05-06 04:07 | 39.64667 | -86.23036 | 6019 ft | 218 kts | 226° |
| 2026-05-06 04:07 | 39.63583 | -86.24407 | 6016 ft | 218 kts | 226° |
| 2026-05-06 04:07 | 39.62511 | -86.25777 | 6023 ft | 220 kts | 227° |
| 2026-05-06 04:08 | 39.61421 | -86.27188 | 6028 ft | 218 kts | 226° |
| 2026-05-06 04:08 | 39.60357 | -86.28554 | 6017 ft | 218 kts | 226° |
| 2026-05-06 04:08 | 39.59275 | -86.29935 | 6021 ft | 217 kts | 226° |
| 2026-05-06 04:08 | 39.58420 | -86.31526 | 6020 ft | 215 kts | 250° |
| 2026-05-06 04:09 | 39.58217 | -86.33436 | 6020 ft | 218 kts | 269° |
| 2026-05-06 04:09 | 39.58226 | -86.35401 | 6015 ft | 217 kts | 269° |
| 2026-05-06 04:09 | 39.58246 | -86.37323 | 6011 ft | 211 kts | 275° |
| 2026-05-06 04:09 | 39.58711 | -86.39045 | 6012 ft | 198 kts | 302° |
| 2026-05-06 04:10 | 39.59705 | -86.40188 | 6011 ft | 188 kts | 330° |
| 2026-05-06 04:10 | 39.60948 | -86.40562 | 5982 ft | 182 kts | 357° |
| 2026-05-06 04:10 | 39.62168 | -86.40150 | 5727 ft | 188 kts | 26° |
| 2026-05-06 04:10 | 39.63176 | -86.39033 | 5349 ft | 194 kts | 43° |
| 2026-05-06 04:11 | 39.64149 | -86.37775 | 4882 ft | 198 kts | 40° |
| 2026-05-06 04:11 | 39.65131 | -86.36540 | 4226 ft | 196 kts | 41° |
| 2026-05-06 04:11 | 39.66302 | -86.35656 | 3230 ft | 198 kts | 12° |
| 2026-05-06 04:11 | 39.67639 | -86.35882 | 2529 ft | 191 kts | 333° |
| 2026-05-06 04:12 | 39.68520 | -86.36949 | 2543 ft | 157 kts | 315° |
| 2026-05-06 04:12 | 39.69243 | -86.38064 | 2720 ft | 172 kts | 315° |
| 2026-05-06 04:12 | 39.69960 | -86.39477 | 2978 ft | 203 kts | 292° |
| 2026-05-06 04:12 | 39.69999 | -86.41353 | 3025 ft | 215 kts | 257° |
| 2026-05-06 04:13 | 39.69187 | -86.42993 | 3020 ft | 225 kts | 222° |
| 2026-05-06 04:13 | 39.67900 | -86.44190 | 3022 ft | 227 kts | 215° |
| 2026-05-06 04:13 | 39.66589 | -86.45331 | 3018 ft | 227 kts | 215° |
| 2026-05-06 04:13 | 39.65321 | -86.46445 | 3009 ft | 214 kts | 215° |
| 2026-05-06 04:14 | 39.64008 | -86.47223 | 3019 ft | 204 kts | 190° |
| 2026-05-06 04:14 | 39.62622 | -86.47052 | 3014 ft | 201 kts | 154° |
| 2026-05-06 04:14 | 39.61568 | -86.45952 | 3007 ft | 188 kts | 118° |
| 2026-05-06 04:14 | 39.61167 | -86.44492 | 3020 ft | 164 kts | 90° |
| 2026-05-06 04:15 | 39.61308 | -86.43061 | 3018 ft | 160 kts | 65° |
| 2026-05-06 04:15 | 39.61691 | -86.41719 | 3009 ft | 148 kts | 65° |
| 2026-05-06 04:15 | 39.62119 | -86.40573 | 3008 ft | 136 kts | 50° |
| 2026-05-06 04:15 | 39.62748 | -86.39686 | 2863 ft | 135 kts | 39° |
| 2026-05-06 04:16 | 39.63440 | -86.38860 | 2683 ft | 136 kts | 41° |
| 2026-05-06 04:16 | 39.64103 | -86.38013 | 2500 ft | 134 kts | 41° |
| 2026-05-06 04:16 | 39.64764 | -86.37169 | 2325 ft | 134 kts | 41° |
| 2026-05-06 04:16 | 39.65409 | -86.36343 | 2136 ft | 123 kts | 42° |
| 2026-05-06 04:17 | 39.66014 | -86.35574 | 1973 ft | 122 kts | 42° |
| 2026-05-06 04:17 | 39.66612 | -86.34809 | 1809 ft | 121 kts | 42° |
| 2026-05-06 04:17 | 39.67208 | -86.34038 | 1637 ft | 124 kts | 43° |
| 2026-05-06 04:17 | 39.67822 | -86.33249 | 1483 ft | 123 kts | 42° |
| 2026-05-06 04:18 | 39.68455 | -86.32472 | 1299 ft | 126 kts | 44° |
| 2026-05-06 04:18 | 39.69051 | -86.31689 | 1128 ft | 122 kts | 42° |
| 2026-05-06 04:18 | 39.69660 | -86.30904 | 936 ft | 126 kts | 43° |
| 2026-05-06 04:18 | 39.70275 | -86.30119 | 808 ft | 117 kts | 42° |
| 2026-05-06 04:19 | 39.70777 | -86.29484 | 790 ft | 76 kts | 45° |
| 2026-05-06 04:19 | 39.71091 | -86.29080 | 788 ft | 42 kts | 45° |
| 2026-05-06 04:19 | 39.71295 | -86.28850 | 789 ft | 36 kts | 28° |
| 2026-05-06 04:19 | 39.71463 | -86.28815 | 789 ft | 23 kts | 357° |
| 2026-05-06 04:20 | 39.71620 | -86.28859 | 785 ft | 24 kts | 312° |
| 2026-05-06 04:20 | 39.71580 | -86.29042 | 790 ft | 27 kts | 231° |
| 2026-05-06 04:20 | 39.71466 | -86.29236 | 787 ft | 23 kts | 263° |
| 2026-05-06 04:20 | 39.71503 | -86.29394 | 788 ft | 7 kts | 308° |
| 2026-05-06 04:21 | 39.71517 | -86.29417 | 788 ft | 3 kts | 307° |